Flight Track Log - Related Links

Times and Time Zones

All times are in EDT time to prevent confusion due to time zone crossing. See the ASQ4976 flight status page for this flight to view local times or setup timezone preferences in your user account.

Time Position Orientation Groundspeed Altitude Reporting Facility
EDT Latitude Longitude Course Direction KTS MPH feet Rate Location/Type
Sat 10:11:21 AM 33.6500 -84.3500 73° East 205 236 3,400  Level Atlanta TRACON
Sat 10:12:15 AM 33.6667 -84.2833 73° East 236 272 5,800 2,400 Climbing Atlanta TRACON
Sat 10:13:21 AM 33.6833 -84.2000 76° East 287 330 8,200 1,963 Climbing Atlanta TRACON
Sat 10:15:49 AM 33.9108 -84.2467 350° North 353 406 12,800 1,846 Climbing Atlanta Center
Sat 10:16:49 AM 33.9964 -84.2794 342° North 366 421 14,600 1,900 Climbing Atlanta Center
Sat 10:17:49 AM 34.1133 -84.2822 359° North 380 437 16,600 2,200 Climbing Atlanta Center
Sat 10:18:49 AM 34.2489 -84.2825 360° North 416 479 19,000 1,750 Climbing Atlanta Center
Sat 10:19:49 AM 34.3658 -84.2653 North 416 479 20,100 1,150 Climbing Atlanta Center
Sat 10:20:49 AM 34.4911 -84.2353 11° North 437 503 21,300 950 Climbing Atlanta Center
Sat 10:21:49 AM 34.6186 -84.2053 11° North 457 526 22,000 450 Climbing Atlanta Center
Sat 10:22:49 AM 34.7439 -84.1778 10° North 462 532 22,200 900 Climbing Atlanta Center
Sat 10:23:49 AM 34.8711 -84.1475 11° North 457 526 23,800 1,400 Climbing Atlanta Center
Sat 10:24:49 AM 35.0006 -84.1147 12° North 462 532 25,000 600 Climbing Atlanta Center
Sat 10:25:49 AM 35.1319 -84.0844 11° North 472 543 25,000  Level Atlanta Center
Sat 10:26:49 AM 35.2531 -84.0539 12° North 478 550 25,000  Level Atlanta Center
Sat 10:27:49 AM 35.3825 -84.0233 11° North 478 550 25,000  Level Atlanta Center
Sat 10:28:49 AM 35.5139 -83.9903 12° North 478 550 25,000  Level Atlanta Center
Sat 10:29:49 AM 35.6431 -83.9594 11° North 478 550 25,000  Level Atlanta Center
Sat 10:30:49 AM 35.7786 -83.9261 11° North 483 556 25,000  Level Atlanta Center
Sat 10:31:49 AM 35.9081 -83.8875 14° North 483 556 25,000  Level Atlanta Center
Sat 10:32:49 AM 36.0289 -83.8181 25° Northeast 477 549 25,000  Level Atlanta Center
Sat 10:33:49 AM 36.1456 -83.7431 27° Northeast 470 541 25,000  Level Atlanta Center
Sat 10:36:17 AM 36.4281 -83.5622 27° Northeast 473 544 25,000  Level Indianapolis Center
Sat 10:37:19 AM 36.5694 -83.4747 26° Northeast 486 559 25,000  Level Indianapolis Center
Sat 10:38:20 AM 36.6814 -83.3869 32° Northeast 480 552 25,000  Level Indianapolis Center
Sat 10:39:22 AM 36.7875 -83.2878 37° Northeast 479 551 25,000  Level Indianapolis Center
Sat 10:40:23 AM 36.8936 -83.1861 37° Northeast 477 549 25,000  Level Indianapolis Center
Sat 10:41:24 AM 37.0011 -83.0858 37° Northeast 476 548 25,000  Level Indianapolis Center
Sat 10:42:26 AM 37.1089 -82.9833 37° Northeast 477 549 25,000  Level Indianapolis Center
Sat 10:43:27 AM 37.2147 -82.8803 38° Northeast 475 547 25,000  Level Indianapolis Center
Sat 10:44:29 AM 37.3217 -82.7792 37° Northeast 478 550 25,000  Level Indianapolis Center
Sat 10:45:30 AM 37.4264 -82.6778 38° Northeast 474 545 25,000  Level Indianapolis Center
Sat 10:46:32 AM 37.5333 -82.5756 37° Northeast 478 550 25,000  Level Indianapolis Center
Sat 10:47:33 AM 37.6550 -82.4553 38° Northeast 476 548 25,000  Level Indianapolis Center
Sat 10:48:35 AM 37.7594 -82.3531 38° Northeast 473 544 25,000  Level Indianapolis Center
Sat 10:49:36 AM 37.8639 -82.2514 38° Northeast 473 544 25,000  Level Indianapolis Center
Sat 10:50:38 AM 37.9614 -82.1581 37° Northeast 476 548 25,000  Level Indianapolis Center
Sat 10:51:39 AM 38.0658 -82.0547 38° Northeast 475 547 25,000  Level Indianapolis Center
Sat 10:52:40 AM 38.1700 -81.9511 38° Northeast 476 548 25,000  Level Indianapolis Center
Sat 10:53:42 AM 38.2947 -81.8258 38° Northeast 477 549 25,000  Level Indianapolis Center
Sat 10:54:43 AM 38.3925 -81.7089 43° Northeast 482 555 25,000  Level Indianapolis Center
Sat 10:55:45 AM 38.4803 -81.5831 48° Northeast 479 551 25,000  Level Indianapolis Center
Sat 10:56:46 AM 38.5692 -81.4569 48° Northeast 484 557 25,000  Level Indianapolis Center
Sat 10:57:48 AM 38.6564 -81.3331 48° Northeast 480 552 25,000  Level Indianapolis Center
Sat 10:58:49 AM 38.7419 -81.2108 48° Northeast 468 539 25,000  Level Indianapolis Center
Sat 10:59:51 AM 38.8392 -81.0697 48° Northeast 442 509 25,000  Level Indianapolis Center
Sat 11:00:52 AM 38.9208 -80.9500 49° Northeast 444 511 25,000  Level Indianapolis Center
Sat 11:01:53 AM 39.0036 -80.8300 48° Northeast 449 517 25,000  Level Indianapolis Center
Sat 11:02:55 AM 39.0878 -80.7103 48° Northeast 451 519 25,000  Level Indianapolis Center
Sat 11:03:56 AM 39.1747 -80.5900 47° Northeast 455 524 25,000  Level Indianapolis Center
Sat 11:04:58 AM 39.2622 -80.4675 47° Northeast 463 533 25,000  Level Indianapolis Center
Sat 11:05:59 AM 39.3500 -80.3442 47° Northeast 464 534 25,000  Level Indianapolis Center
Sat 11:07:12 AM 39.4578 -80.1958 47° Northeast 454 522 25,000  Level Cleveland Center
Sat 11:08:12 AM 39.5450 -80.0717 48° Northeast 454 522 25,000  Level Cleveland Center
Sat 11:09:12 AM 39.6297 -79.9469 49° Northeast 454 522 25,000  Level Cleveland Center
Sat 11:10:12 AM 39.7144 -79.8275 47° Northeast 454 522 25,000  Level Cleveland Center
Sat 11:11:12 AM 39.7989 -79.6994 49° Northeast 454 522 25,000  Level Cleveland Center
Sat 11:12:12 AM 39.8833 -79.5767 48° Northeast 454 522 25,000  Level Cleveland Center
Sat 11:13:12 AM 39.9656 -79.4508 50° Northeast 454 522 25,000  Level Cleveland Center
Sat 11:14:12 AM 40.0497 -79.3247 49° Northeast 454 522 25,000  Level Cleveland Center
Sat 11:15:12 AM 40.1275 -79.2011 51° Northeast 454 522 25,000  Level Cleveland Center
Sat 11:16:12 AM 40.2114 -79.0742 49° Northeast 454 522 25,000  Level Cleveland Center
Sat 11:17:12 AM 40.2953 -78.9497 49° Northeast 454 522 25,000  Level Cleveland Center
Sat 11:18:12 AM 40.3789 -78.8225 49° Northeast 454 522 25,000  Level Cleveland Center
Sat 11:19:12 AM 40.4622 -78.6947 49° Northeast 459 528 25,000  Level Cleveland Center
Sat 11:20:12 AM 40.5456 -78.5667 49° Northeast 459 528 25,000  Level Cleveland Center
Sat 11:21:12 AM 40.6367 -78.4269 49° Northeast 462 532 25,000  Level Cleveland Center
Sat 11:23:30 AM 40.8194 -78.1425 50° Northeast 464 534 25,000  Level New York Center
Sat 11:24:30 AM 40.9042 -78.0197 48° Northeast 464 534 25,000  Level New York Center
Sat 11:25:31 AM 41.0019 -77.9175 38° Northeast 452 520 25,000  Level New York Center
Sat 11:26:29 AM 41.0906 -77.7972 46° Northeast 446 513 25,000  Level New York Center
Sat 11:27:29 AM 41.1706 -77.6758 49° Northeast 446 513 25,000  Level New York Center
Sat 11:28:30 AM 41.2525 -77.5544 48° Northeast 446 513 25,000  Level New York Center
Sat 11:29:31 AM 41.3325 -77.4300 49° Northeast 441 507 25,000  Level New York Center
Sat 11:30:31 AM 41.4103 -77.3075 50° Northeast 434 499 25,000  Level New York Center
Sat 11:31:32 AM 41.4989 -77.1722 49° Northeast 439 505 25,000  Level New York Center
Sat 11:32:29 AM 41.5783 -77.0494 49° Northeast 439 505 25,000  Level New York Center
Sat 11:33:29 AM 41.6600 -76.9208 50° Northeast 439 505 25,000  Level New York Center
Sat 11:34:30 AM 41.7414 -76.7950 49° Northeast 445 512 25,000 -248 Level New York Center
Sat 11:35:30 AM 41.8225 -76.6714 49° Northeast 445 512 24,500 -496 Descending New York Center
Sat 11:36:31 AM 41.8994 -76.5503 49° Northeast 439 505 24,000 -146 Descending New York Center
Sat 11:38:56 AM 42.0903 -76.2508 49° Northeast 455 524 24,000  Level Boston Center
Sat 11:39:56 AM 42.1633 -76.1236 52° Northeast 450 518 24,000  Level Boston Center
Sat 11:40:56 AM 42.2161 -75.9697 65° Northeast 439 505 24,000  Level Boston Center
Sat 11:41:56 AM 42.2544 -75.8147 71° East 433 498 24,000  Level Boston Center
Sat 11:42:56 AM 42.2944 -75.6542 71° East 433 498 24,000  Level Boston Center
Sat 11:43:56 AM 42.3342 -75.5017 71° East 433 498 24,000 -250 Level Boston Center
Sat 11:44:56 AM 42.3714 -75.3461 72° East 433 498 23,500 -750 Descending Boston Center
Sat 11:45:56 AM 42.4086 -75.1986 71° East 428 493 22,500 -1,750 Descending Boston Center
Sat 11:46:56 AM 42.4453 -75.0511 71° East 421 484 20,000 -2,250 Descending Boston Center
Sat 11:47:56 AM 42.4819 -74.9064 71° East 409 471 18,000 -2,308 Descending Boston Center
Sat 11:48:53 AM 42.5161 -74.7667 72° East 381 438 15,500 -2,553 Descending Boston Center
Sat 11:49:30 AM 42.5367 -74.6831 72° East 380 437 14,000 -2,080 Descending Boston Center
Sat 11:50:08 AM 42.5525 -74.6189 71° East 376 433 12,900 -2,459 Descending Boston Center
Sat 11:50:31 AM 42.5706 -74.5489 71° East 376 433 11,500 -2,000 Descending Boston Center
Sat 11:51:08 AM 42.5886 -74.4650 74° East 357 411 10,900 -984 Descending Boston Center
Sat 11:51:32 AM 42.6000 -74.4203 71° East 328 377 10,500 -900 Descending Boston Center
Sat 11:52:08 AM 42.6156 -74.3531 73° East 328 377 10,000 -1,000 Descending Boston Center
Sat 11:52:32 AM 42.6267 -74.3139 69° East 270 311 9,500 -1,300 Descending Boston Center
Sat 11:53:08 AM 42.6339 -74.2547 81° East 274 315 8,700 -1,377 Descending Boston Center
Sat 11:53:33 AM 42.6386 -74.2181 80° East 255 293 8,100 -1,500 Descending Boston Center
Sat 11:54:08 AM 42.6439 -74.1589 83° East 261 300 7,200 -1,636 Descending Boston Center
Sat 11:54:28 AM 42.6442 -74.1253 89° East 257 296 6,600 -1,600 Descending Boston Center
Sat 11:55:08 AM 42.6472 -74.0631 86° East 256 295 5,600 -1,180 Descending Boston Center
Sat 11:55:29 AM 42.6478 -74.0322 89° East 257 296 5,400 -900 Descending Boston Center
Sat 11:56:08 AM 42.6506 -73.9758 86° East 244 281 4,700 -1,180 Descending Boston Center
Sat 11:56:30 AM 42.6489 -73.9475 95° East 211 243 4,200 -1,700 Descending Boston Center
Sat 11:57:08 AM 42.6536 -73.8967 83° East 223 257 3,000 -1,600 Descending Boston Center
Sat 11:57:30 AM 42.6583 -73.8658 78° East 204 235 2,600 -600 Descending Boston Center
Sat 11:58:08 AM 42.6608 -73.8264 85° East 216 249 2,400 -987 Descending Boston Center
Sat 11:58:49 AM 42.6922 -73.8072 24° Northeast 145 167 1,300 -1,214 Descending Boston Center
Sat 11:59:32 AM 42.7194 -73.8078 359° North 133 153 700 -837 Descending Boston Center

Login

Don't have an account? Register now (free) for customized features, flight alerts, and more!